Time;durP1;ratioP1;P1;durP2;ratioP2;P2;SDS_P1;SDS_P2;PMS_P1;PMS_P2;Temp;Humidity;BMP_temperature;BMP_pressure;BME280_temperature;BME280_humidity;BME280_pressure;Samples;Min_cycle;Max_cycle;Signal;HPM_P1;HPM_P2
2022/03/15 00:00:57;;;;;;;5.50;4.17;;;8.10;99.90;;;;;;4996437;28;20426;-67
2022/03/15 00:03:24;;;;;;;7.83;5.70;;;8.10;99.90;;;;;;4996508;28;21024;-68
2022/03/15 00:05:52;;;;;;;5.00;4.00;;;8.00;99.90;;;;;;4998362;28;20775;-67
2022/03/15 00:08:20;;;;;;;8.00;3.80;;;7.90;99.90;;;;;;4997033;28;20817;-66
2022/03/15 00:10:48;;;;;;;4.53;2.90;;;8.00;99.90;;;;;;4999815;28;20603;-67
2022/03/15 00:13:15;;;;;;;5.23;2.97;;;8.10;99.90;;;;;;4996894;28;20525;-68
2022/03/15 00:15:42;;;;;;;5.33;3.87;;;8.10;99.90;;;;;;4998928;28;22078;-67
2022/03/15 00:18:09;;;;;;;6.67;4.27;;;8.10;99.90;;;;;;5003045;28;22108;-67
2022/03/15 00:20:37;;;;;;;6.47;4.07;;;8.00;99.90;;;;;;4999449;28;20496;-69
2022/03/15 00:23:05;;;;;;;5.70;5.20;;;7.90;99.90;;;;;;4995709;28;20441;-69
2022/03/15 00:25:32;;;;;;;7.10;3.80;;;8.00;99.90;;;;;;5000558;28;20518;-68
2022/03/15 00:27:59;;;;;;;6.33;3.77;;;8.00;99.90;;;;;;4995235;28;20568;-69
2022/03/15 00:30:26;;;;;;;3.83;3.40;;;7.90;99.90;;;;;;4993782;28;20547;-68
2022/03/15 00:32:54;;;;;;;4.30;3.37;;;7.90;99.90;;;;;;4996980;28;21082;-69
2022/03/15 00:35:22;;;;;;;4.47;3.10;;;7.90;99.90;;;;;;4991505;28;20940;-68
2022/03/15 00:37:51;;;;;;;5.07;3.20;;;7.90;99.90;;;;;;4994321;28;20705;-68
2022/03/15 00:40:21;;;;;;;17.93;4.77;;;7.90;99.90;;;;;;4998578;28;20521;-68
2022/03/15 00:42:52;;;;;;;8.90;4.27;;;7.80;99.90;;;;;;4992767;28;20473;-69
2022/03/15 00:45:22;;;;;;;4.33;3.27;;;7.80;99.90;;;;;;4997248;28;20466;-67
2022/03/15 00:47:49;;;;;;;6.10;4.00;;;7.70;99.90;;;;;;4991617;28;20467;-69
2022/03/15 00:50:16;;;;;;;4.63;3.80;;;7.70;99.90;;;;;;4990999;28;21055;-68
2022/03/15 00:52:44;;;;;;;5.10;4.10;;;7.80;99.90;;;;;;4990797;28;20454;-68
2022/03/15 00:55:11;;;;;;;6.67;3.57;;;7.80;99.90;;;;;;4990687;28;20544;-69
2022/03/15 00:57:39;;;;;;;6.37;3.73;;;7.70;99.90;;;;;;4995857;28;20496;-69
2022/03/15 01:00:08;;;;;;;4.33;3.47;;;7.70;99.90;;;;;;4998088;28;20475;-69
2022/03/15 01:02:35;;;;;;;8.07;3.23;;;7.80;99.90;;;;;;4997416;28;20460;-69
2022/03/15 01:05:03;;;;;;;6.37;4.10;;;7.80;99.90;;;;;;5001317;28;20466;-67
2022/03/15 01:07:30;;;;;;;5.77;3.10;;;7.70;99.90;;;;;;5003108;28;20569;-68
2022/03/15 01:09:57;;;;;;;6.20;4.17;;;7.60;99.90;;;;;;5000842;28;20524;-68
2022/03/15 01:12:24;;;;;;;9.77;3.37;;;7.60;99.90;;;;;;4999480;28;21417;-68
2022/03/15 01:14:52;;;;;;;6.43;3.37;;;7.60;99.90;;;;;;4998076;28;20684;-69
2022/03/15 01:17:18;;;;;;;5.67;4.40;;;7.70;99.90;;;;;;4995746;28;20466;-67
2022/03/15 01:19:45;;;;;;;6.00;3.33;;;7.70;99.90;;;;;;4991175;28;20468;-67
2022/03/15 01:22:12;;;;;;;4.70;3.53;;;7.70;99.90;;;;;;5004664;28;20473;-67
2022/03/15 01:24:39;;;;;;;4.70;4.10;;;7.70;99.90;;;;;;4992455;28;21179;-67
2022/03/15 01:27:06;;;;;;;5.63;3.37;;;7.70;99.90;;;;;;4997067;28;20583;-68
2022/03/15 01:29:32;;;;;;;4.77;4.30;;;7.60;99.90;;;;;;4993185;28;20513;-68
2022/03/15 01:32:01;;;;;;;4.83;3.53;;;7.70;99.90;;;;;;4987842;28;21634;-67
2022/03/15 01:34:28;;;;;;;5.87;4.60;;;7.70;99.90;;;;;;4996032;28;20489;-68
2022/03/15 01:36:54;;;;;;;9.20;4.67;;;7.70;99.90;;;;;;4990441;28;20454;-67
2022/03/15 01:39:24;;;;;;;8.40;4.77;;;7.80;99.90;;;;;;5003567;28;20472;-69
2022/03/15 01:41:52;;;;;;;5.70;3.90;;;7.90;99.90;;;;;;5000579;28;20502;-69
2022/03/15 01:44:20;;;;;;;5.40;3.50;;;7.90;99.90;;;;;;4998421;28;20518;-66
2022/03/15 01:46:50;;;;;;;9.70;4.93;;;7.90;99.90;;;;;;4990804;28;20491;-68
2022/03/15 01:49:19;;;;;;;6.07;5.00;;;7.90;99.90;;;;;;4989724;28;20990;-67
2022/03/15 01:51:50;;;;;;;9.13;3.83;;;7.80;99.90;;;;;;4998561;28;20458;-69
2022/03/15 01:54:20;;;;;;;5.30;4.70;;;7.80;99.90;;;;;;4992398;28;20823;-67
2022/03/15 01:56:47;;;;;;;4.67;3.67;;;7.80;99.90;;;;;;4993489;28;20434;-66
2022/03/15 01:59:16;;;;;;;9.10;4.80;;;7.90;99.90;;;;;;4995822;28;20468;-67
2022/03/15 02:01:43;;;;;;;19.23;4.03;;;7.80;99.90;;;;;;4997167;28;20756;-67
2022/03/15 02:04:11;;;;;;;6.00;4.00;;;7.70;99.90;;;;;;4994776;28;20546;-67
2022/03/15 02:06:41;;;;;;;6.93;3.57;;;7.60;99.90;;;;;;4994794;28;20530;-67
2022/03/15 02:09:09;;;;;;;3.53;3.20;;;7.60;99.90;;;;;;4993294;28;21006;-66
2022/03/15 02:11:36;;;;;;;4.87;3.50;;;7.60;99.90;;;;;;4992742;28;21041;-67
2022/03/15 02:14:03;;;;;;;5.30;4.00;;;7.60;99.90;;;;;;4999402;28;20443;-68
2022/03/15 02:16:30;;;;;;;9.20;4.37;;;7.70;99.90;;;;;;4996298;28;20435;-68
2022/03/15 02:18:58;;;;;;;7.80;5.50;;;7.70;99.90;;;;;;4995604;28;20922;-67
2022/03/15 02:21:27;;;;;;;6.23;3.73;;;7.70;99.90;;;;;;4992775;28;20942;-68
2022/03/15 02:23:54;;;;;;;10.10;4.53;;;7.80;99.90;;;;;;4996984;28;20449;-67
2022/03/15 02:26:21;;;;;;;5.27;3.60;;;7.80;99.90;;;;;;4994513;28;20719;-68
2022/03/15 02:28:47;;;;;;;6.90;3.73;;;7.70;99.90;;;;;;4995741;28;22208;-68
2022/03/15 02:31:14;;;;;;;9.10;4.80;;;7.60;99.90;;;;;;4995738;28;20644;-68
2022/03/15 02:33:41;;;;;;;6.40;3.83;;;7.50;99.90;;;;;;4991626;28;20555;-69
2022/03/15 02:36:08;;;;;;;9.53;5.00;;;7.50;99.90;;;;;;4990297;28;20445;-68
2022/03/15 02:38:36;;;;;;;5.77;3.57;;;7.40;99.90;;;;;;5003165;28;21311;-69
2022/03/15 02:41:04;;;;;;;14.77;5.97;;;7.40;99.90;;;;;;4995831;28;20489;-69
2022/03/15 02:43:31;;;;;;;5.60;4.03;;;7.30;99.90;;;;;;4994388;28;24573;-67
2022/03/15 02:45:57;;;;;;;5.87;3.53;;;7.40;99.90;;;;;;4998161;28;20457;-67
2022/03/15 02:48:24;;;;;;;11.20;4.43;;;7.50;99.90;;;;;;4997738;28;20952;-69
2022/03/15 02:50:51;;;;;;;4.80;4.13;;;7.60;99.90;;;;;;5000084;28;20532;-67
2022/03/15 02:53:17;;;;;;;6.77;4.73;;;7.50;99.90;;;;;;5000353;28;21200;-68
2022/03/15 02:55:46;;;;;;;8.90;5.10;;;7.50;99.90;;;;;;4996521;28;20926;-68
2022/03/15 02:58:14;;;;;;;6.90;5.03;;;7.40;99.90;;;;;;4992233;28;20559;-68
2022/03/15 03:00:41;;;;;;;9.37;4.50;;;7.40;99.90;;;;;;4989095;28;20632;-68
2022/03/15 03:03:08;;;;;;;5.13;3.57;;;7.40;99.90;;;;;;4997350;28;20525;-68
2022/03/15 03:05:34;;;;;;;6.03;4.37;;;7.30;99.90;;;;;;4995014;28;21129;-68
2022/03/15 03:08:04;;;;;;;10.43;5.17;;;7.40;99.90;;;;;;4993884;28;22275;-66
2022/03/15 03:10:31;;;;;;;7.10;3.57;;;7.30;99.90;;;;;;5001092;28;20557;-67
2022/03/15 03:13:00;;;;;;;10.47;4.43;;;7.30;99.90;;;;;;4997151;28;20573;-67
2022/03/15 03:15:27;;;;;;;5.37;3.37;;;7.30;99.90;;;;;;4993739;28;21096;-67
2022/03/15 03:17:54;;;;;;;5.60;3.70;;;7.30;99.90;;;;;;5000609;28;20486;-67
2022/03/15 03:20:22;;;;;;;7.63;4.63;;;7.30;99.90;;;;;;4995722;28;21076;-68
2022/03/15 03:22:50;;;;;;;3.73;3.33;;;7.20;99.90;;;;;;4992123;28;20448;-67
2022/03/15 03:25:17;;;;;;;11.27;3.70;;;7.40;99.90;;;;;;4995530;28;20430;-67
2022/03/15 03:27:46;;;;;;;6.33;3.67;;;7.40;99.90;;;;;;4993681;28;21006;-70
2022/03/15 03:30:15;;;;;;;4.00;2.87;;;7.30;99.90;;;;;;4995937;28;20444;-70
2022/03/15 03:32:42;;;;;;;5.87;4.00;;;7.40;99.90;;;;;;4995935;28;20856;-70
2022/03/15 03:35:09;;;;;;;4.27;3.73;;;7.40;99.90;;;;;;4996990;28;21855;-70
2022/03/15 03:37:39;;;;;;;7.63;4.70;;;7.50;99.90;;;;;;4989494;28;20627;-70
2022/03/15 03:40:07;;;;;;;6.80;3.57;;;7.40;99.90;;;;;;4992344;28;20465;-70
2022/03/15 03:42:35;;;;;;;3.80;3.17;;;7.40;99.90;;;;;;4987821;28;20440;-72
2022/03/15 03:45:02;;;;;;;3.60;2.83;;;7.40;99.90;;;;;;4991143;28;20486;-70
2022/03/15 03:47:33;;;;;;;9.07;4.50;;;7.30;99.90;;;;;;4999837;28;20465;-70
2022/03/15 03:50:00;;;;;;;6.67;3.87;;;7.30;99.90;;;;;;4991313;28;20714;-70
2022/03/15 03:52:27;;;;;;;6.23;3.67;;;7.30;99.90;;;;;;4990989;28;20462;-70
2022/03/15 03:54:54;;;;;;;5.37;3.40;;;7.30;99.90;;;;;;4993869;28;20438;-71
2022/03/15 03:57:20;;;;;;;4.73;3.43;;;7.20;99.90;;;;;;4996650;28;20585;-70
2022/03/15 03:59:47;;;;;;;4.17;3.50;;;7.20;99.90;;;;;;4994873;28;20537;-70
2022/03/15 04:02:14;;;;;;;6.10;3.23;;;7.20;99.90;;;;;;4994348;28;20550;-70
2022/03/15 04:04:43;;;;;;;6.27;5.57;;;7.20;99.90;;;;;;4995288;28;20461;-71
2022/03/15 04:07:12;;;;;;;10.70;4.70;;;7.30;99.90;;;;;;4988812;28;20461;-70
2022/03/15 04:09:39;;;;;;;7.57;4.30;;;7.30;99.90;;;;;;4997781;28;20450;-70
2022/03/15 04:12:06;;;;;;;4.33;3.73;;;7.30;99.90;;;;;;4998601;28;20483;-70
2022/03/15 04:14:35;;;;;;;3.97;3.53;;;7.30;99.90;;;;;;5000150;28;20442;-73
2022/03/15 04:17:02;;;;;;;6.73;4.00;;;7.30;99.90;;;;;;4998080;28;20453;-69
2022/03/15 04:19:29;;;;;;;7.93;5.00;;;7.20;99.90;;;;;;5002945;28;20574;-69
2022/03/15 04:21:57;;;;;;;4.70;3.27;;;7.30;99.90;;;;;;5005090;28;21537;-71
2022/03/15 04:24:24;;;;;;;6.93;4.10;;;7.30;99.90;;;;;;5000832;28;21048;-69
2022/03/15 04:26:51;;;;;;;4.80;3.70;;;7.40;99.90;;;;;;5003212;28;20434;-69
2022/03/15 04:29:17;;;;;;;8.47;3.40;;;7.50;99.90;;;;;;5002354;28;20434;-70
2022/03/15 04:31:44;;;;;;;7.17;3.77;;;7.50;99.90;;;;;;5000973;28;20434;-70
2022/03/15 04:34:11;;;;;;;7.10;3.67;;;7.50;99.90;;;;;;5002736;28;20463;-70
2022/03/15 04:36:39;;;;;;;4.90;3.60;;;7.50;99.90;;;;;;5008060;28;20958;-70
2022/03/15 04:39:08;;;;;;;6.03;3.53;;;7.50;99.90;;;;;;5003811;28;20726;-70
2022/03/15 04:41:34;;;;;;;6.90;4.50;;;7.40;99.90;;;;;;5002989;28;22402;-70
2022/03/15 04:44:01;;;;;;;5.10;3.33;;;7.20;99.90;;;;;;5012925;28;21188;-70
2022/03/15 04:46:28;;;;;;;7.03;4.80;;;7.30;99.90;;;;;;5017607;28;20976;-70
2022/03/15 04:48:55;;;;;;;7.27;4.60;;;7.30;99.90;;;;;;5018177;28;20600;-71
2022/03/15 04:51:22;;;;;;;9.57;4.90;;;7.30;99.90;;;;;;5017143;28;20782;-70
2022/03/15 04:53:49;;;;;;;6.10;4.90;;;7.50;99.90;;;;;;5019680;28;20494;-71
2022/03/15 04:56:17;;;;;;;6.17;3.73;;;7.30;99.90;;;;;;5015550;28;20460;-70
2022/03/15 04:58:45;;;;;;;10.80;4.77;;;7.20;99.90;;;;;;5016949;28;20454;-70
2022/03/15 05:01:12;;;;;;;6.80;4.23;;;7.20;99.90;;;;;;5011172;28;20858;-70
2022/03/15 05:03:38;;;;;;;6.03;4.17;;;7.20;99.90;;;;;;5013313;28;21137;-68
2022/03/15 05:06:05;;;;;;;20.80;5.37;;;7.20;99.90;;;;;;5023625;28;20463;-68
2022/03/15 05:08:32;;;;;;;5.27;3.50;;;7.40;99.90;;;;;;5022330;28;20465;-68
2022/03/15 05:11:07;;;;;;;18.23;7.40;;;7.40;99.90;;;;;;5015314;28;20517;-67
2022/03/15 05:13:39;;;;;;;7.30;3.80;;;7.40;99.90;;;;;;5009260;28;20562;-66
2022/03/15 05:16:07;;;;;;;20.53;5.00;;;7.30;99.90;;;;;;5016365;28;20523;-67
2022/03/15 05:18:34;;;;;;;7.03;4.97;;;7.30;99.90;;;;;;5022568;28;20446;-69
2022/03/15 05:21:01;;;;;;;5.80;4.17;;;7.30;99.90;;;;;;5023002;28;20624;-70
2022/03/15 05:23:29;;;;;;;7.73;4.70;;;7.30;99.90;;;;;;5011250;28;20522;-71
2022/03/15 05:25:56;;;;;;;5.60;4.30;;;7.50;99.90;;;;;;5014640;28;20498;-71
2022/03/15 05:28:22;;;;;;;5.67;3.30;;;7.40;99.90;;;;;;5009872;28;22592;-72
2022/03/15 05:30:51;;;;;;;7.27;4.07;;;7.40;99.90;;;;;;5018307;28;20561;-71
2022/03/15 05:33:17;;;;;;;7.83;5.10;;;7.40;99.90;;;;;;5009479;28;20967;-71
2022/03/15 05:35:44;;;;;;;6.53;4.47;;;7.50;99.90;;;;;;5021802;28;20913;-72
2022/03/15 05:38:13;;;;;;;12.90;4.90;;;7.60;99.90;;;;;;5017948;28;20475;-72
2022/03/15 05:40:40;;;;;;;7.80;5.30;;;7.70;99.90;;;;;;5019616;28;20430;-71
2022/03/15 05:43:07;;;;;;;5.93;3.87;;;7.70;99.90;;;;;;5026326;28;21150;-71
2022/03/15 05:45:34;;;;;;;7.43;4.63;;;7.80;99.90;;;;;;5025278;28;20464;-71
2022/03/15 05:48:04;;;;;;;5.50;4.37;;;7.90;99.90;;;;;;5022516;28;20487;-71
2022/03/15 05:50:31;;;;;;;7.00;4.97;;;7.80;99.90;;;;;;5027528;28;20990;-71
2022/03/15 05:52:58;;;;;;;5.93;4.60;;;7.90;99.90;;;;;;5026445;28;20510;-71
2022/03/15 05:55:25;;;;;;;7.33;4.17;;;7.90;99.90;;;;;;5020993;28;20438;-70
2022/03/15 05:57:51;;;;;;;4.73;3.90;;;7.90;99.90;;;;;;5024511;28;20807;-70
2022/03/15 06:00:20;;;;;;;7.17;4.93;;;8.00;99.90;;;;;;5021236;28;20458;-69
2022/03/15 06:02:47;;;;;;;10.47;9.40;;;7.90;99.90;;;;;;5028720;28;20457;-69
2022/03/15 06:05:15;;;;;;;5.23;4.73;;;8.00;99.90;;;;;;5031696;28;20434;-69
2022/03/15 06:07:45;;;;;;;8.67;6.33;;;8.00;99.90;;;;;;5035422;28;20913;-69
2022/03/15 06:10:12;;;;;;;11.37;6.57;;;8.00;99.90;;;;;;5028797;28;20437;-69
2022/03/15 06:12:39;;;;;;;7.07;5.00;;;7.90;99.90;;;;;;5032621;28;20556;-70
2022/03/15 06:15:06;;;;;;;7.60;6.27;;;8.00;99.90;;;;;;5022030;28;20504;-69
2022/03/15 06:17:34;;;;;;;10.90;4.20;;;8.10;99.90;;;;;;5032504;28;20830;-69
2022/03/15 06:20:00;;;;;;;7.23;3.67;;;8.10;99.90;;;;;;5036055;28;20456;-71
2022/03/15 06:22:29;;;;;;;4.40;4.00;;;8.10;99.90;;;;;;5035627;28;20459;-71
2022/03/15 06:24:55;;;;;;;11.73;5.00;;;8.10;99.90;;;;;;5037064;28;20437;-70
2022/03/15 06:27:22;;;;;;;15.67;3.80;;;8.20;99.90;;;;;;5025019;28;21116;-70
2022/03/15 06:29:50;;;;;;;10.13;4.97;;;8.20;99.90;;;;;;5037523;28;20455;-70
2022/03/15 06:32:17;;;;;;;13.30;5.00;;;8.30;99.90;;;;;;5028669;28;20529;-71
2022/03/15 06:34:43;;;;;;;8.17;4.10;;;8.30;99.90;;;;;;5031601;28;20743;-70
2022/03/15 06:37:11;;;;;;;10.80;4.97;;;8.40;99.90;;;;;;5036666;28;20480;-70
2022/03/15 06:39:39;;;;;;;9.60;6.17;;;8.40;99.90;;;;;;5035066;28;20459;-70
2022/03/15 06:42:11;;;;;;;11.10;7.70;;;8.30;99.90;;;;;;5037811;28;20433;-70
2022/03/15 06:44:38;;;;;;;6.27;4.80;;;8.30;99.90;;;;;;5029646;28;20477;-69
2022/03/15 06:47:08;;;;;;;12.80;5.10;;;8.30;99.90;;;;;;5033923;28;20450;-69
2022/03/15 06:49:34;;;;;;;5.00;4.30;;;8.20;99.90;;;;;;5031836;28;21351;-69
2022/03/15 06:52:01;;;;;;;8.60;4.20;;;8.20;99.90;;;;;;5033456;28;20764;-69
2022/03/15 06:54:28;;;;;;;7.10;5.30;;;8.40;99.90;;;;;;5025614;28;20533;-69
2022/03/15 06:56:57;;;;;;;7.20;4.00;;;8.40;99.90;;;;;;5039232;28;20531;-68
2022/03/15 06:59:24;;;;;;;5.33;4.23;;;8.40;99.90;;;;;;5034572;28;20824;-70
2022/03/15 07:01:51;;;;;;;11.43;5.40;;;8.40;99.90;;;;;;5034363;28;20488;-68
2022/03/15 07:04:18;;;;;;;6.20;4.67;;;8.50;99.90;;;;;;5037063;28;20579;-70
2022/03/15 07:06:45;;;;;;;7.80;4.50;;;8.60;99.90;;;;;;5035412;28;20438;-69
2022/03/15 07:09:12;;;;;;;5.47;3.63;;;8.50;99.90;;;;;;5032610;28;20442;-69
2022/03/15 07:11:40;;;;;;;16.97;4.10;;;8.50;99.90;;;;;;5032566;28;20503;-69
2022/03/15 07:14:08;;;;;;;3.63;3.27;;;8.40;99.90;;;;;;5034170;28;20454;-69
2022/03/15 07:16:34;;;;;;;4.83;3.07;;;8.40;99.90;;;;;;5034459;28;20464;-70
2022/03/15 07:19:01;;;;;;;4.33;3.30;;;8.50;99.90;;;;;;5033743;28;21179;-69
2022/03/15 07:21:28;;;;;;;7.07;4.73;;;8.60;99.90;;;;;;5031289;28;20440;-69
2022/03/15 07:23:55;;;;;;;11.03;3.70;;;8.60;99.90;;;;;;5029886;28;21213;-68
2022/03/15 07:26:22;;;;;;;9.13;6.07;;;8.80;99.90;;;;;;5034635;28;20469;-67
2022/03/15 07:28:48;;;;;;;3.93;3.53;;;8.70;99.90;;;;;;5040810;28;20475;-67
2022/03/15 07:31:16;;;;;;;9.77;4.77;;;8.70;99.90;;;;;;5031002;28;20467;-67
2022/03/15 07:33:43;;;;;;;6.30;3.73;;;8.70;99.90;;;;;;5035804;28;20470;-66
2022/03/15 07:36:10;;;;;;;7.90;5.37;;;8.60;99.90;;;;;;5032498;28;20499;-68
2022/03/15 07:38:36;;;;;;;11.10;3.80;;;8.50;99.90;;;;;;5033066;28;20497;-70
2022/03/15 07:41:03;;;;;;;6.20;4.77;;;8.50;99.90;;;;;;5024804;28;20934;-70
2022/03/15 07:43:30;;;;;;;12.90;6.10;;;8.60;99.90;;;;;;5033256;28;20462;-69
2022/03/15 07:45:56;;;;;;;25.87;8.40;;;8.60;99.90;;;;;;5027103;28;20554;-70
2022/03/15 07:48:24;;;;;;;5.83;3.47;;;8.70;99.90;;;;;;5034559;28;21383;-69
2022/03/15 07:50:52;;;;;;;5.23;3.07;;;8.60;99.90;;;;;;5029619;28;21051;-69
2022/03/15 07:53:19;;;;;;;4.57;3.80;;;8.60;99.90;;;;;;5035887;28;20560;-69
2022/03/15 07:55:45;;;;;;;4.60;3.90;;;8.70;99.90;;;;;;5039537;28;20818;-68
2022/03/15 07:58:12;;;;;;;5.03;3.53;;;8.60;99.90;;;;;;5041129;28;20519;-67
2022/03/15 08:00:39;;;;;;;6.70;3.17;;;8.70;99.90;;;;;;5040199;28;20425;-68
2022/03/15 08:03:06;;;;;;;4.43;2.97;;;8.70;99.90;;;;;;5034161;28;20496;-70
2022/03/15 08:05:34;;;;;;;5.33;4.27;;;8.70;99.90;;;;;;5028039;28;20464;-68
2022/03/15 08:08:00;;;;;;;4.83;3.33;;;8.70;99.90;;;;;;5023444;28;20489;-68
2022/03/15 08:10:29;;;;;;;3.80;3.50;;;8.70;99.90;;;;;;5036631;28;20473;-68
2022/03/15 08:12:56;;;;;;;5.57;4.10;;;8.70;99.90;;;;;;5029495;28;20513;-68
2022/03/15 08:15:23;;;;;;;10.10;3.47;;;8.70;99.90;;;;;;5034376;28;21045;-69
2022/03/15 08:17:50;;;;;;;6.50;3.83;;;8.70;99.90;;;;;;5032730;28;20479;-69
2022/03/15 08:20:18;;;;;;;9.07;4.07;;;8.80;99.90;;;;;;5034991;28;20468;-68
2022/03/15 08:22:46;;;;;;;6.43;4.90;;;8.90;99.90;;;;;;5034368;28;20558;-68
2022/03/15 08:25:13;;;;;;;8.10;4.30;;;8.80;99.90;;;;;;5033140;28;20430;-70
2022/03/15 08:27:40;;;;;;;4.87;2.57;;;8.90;99.90;;;;;;5035422;28;20454;-69
2022/03/15 08:30:09;;;;;;;3.83;2.50;;;8.90;99.90;;;;;;5033456;28;20466;-69
2022/03/15 08:32:35;;;;;;;7.83;4.13;;;8.90;99.90;;;;;;5029838;28;20964;-69
2022/03/15 08:35:02;;;;;;;5.27;4.37;;;9.00;99.90;;;;;;5033745;28;20485;-69
2022/03/15 08:37:29;;;;;;;5.63;3.13;;;9.20;99.90;;;;;;5029387;28;20934;-69
2022/03/15 08:39:59;;;;;;;13.10;4.03;;;9.40;99.90;;;;;;5031896;28;20472;-69
2022/03/15 08:42:26;;;;;;;4.60;3.53;;;9.50;99.90;;;;;;5023984;28;20524;-67
2022/03/15 08:44:53;;;;;;;7.50;4.13;;;9.80;99.90;;;;;;5030007;28;20438;-67
2022/03/15 08:47:20;;;;;;;8.37;4.60;;;9.70;99.90;;;;;;5024742;28;20494;-69
2022/03/15 08:49:46;;;;;;;4.63;2.80;;;9.60;99.90;;;;;;5019905;28;20780;-68
2022/03/15 08:52:13;;;;;;;6.50;4.20;;;9.60;99.90;;;;;;5026759;28;20466;-67
2022/03/15 08:54:40;;;;;;;6.40;4.50;;;9.60;99.90;;;;;;5033963;28;20468;-69
2022/03/15 08:57:08;;;;;;;5.40;4.47;;;9.60;99.90;;;;;;5029472;28;21017;-68
2022/03/15 08:59:35;;;;;;;16.03;3.90;;;9.60;99.90;;;;;;5028621;28;20463;-68
2022/03/15 09:02:03;;;;;;;9.23;3.83;;;9.70;99.90;;;;;;5024973;28;20504;-68
2022/03/15 09:04:30;;;;;;;4.27;3.70;;;9.80;99.90;;;;;;5035699;28;20514;-69
2022/03/15 09:06:56;;;;;;;10.20;4.23;;;9.90;99.90;;;;;;5026778;28;20432;-67
2022/03/15 09:09:25;;;;;;;8.07;4.23;;;9.90;99.90;;;;;;5025283;28;20469;-69
2022/03/15 09:11:52;;;;;;;8.23;4.80;;;9.90;99.90;;;;;;5026641;28;21019;-69
2022/03/15 09:14:20;;;;;;;5.07;3.80;;;9.90;99.90;;;;;;5035806;28;20598;-68
2022/03/15 09:16:47;;;;;;;7.40;4.33;;;10.00;99.90;;;;;;5039072;28;20469;-69
2022/03/15 09:19:14;;;;;;;6.43;4.20;;;9.90;99.90;;;;;;5027147;28;20463;-67
2022/03/15 09:21:41;;;;;;;8.73;4.87;;;10.00;99.90;;;;;;5034414;28;20738;-68
2022/03/15 09:24:08;;;;;;;12.00;3.83;;;10.00;99.90;;;;;;5028639;28;20880;-68
2022/03/15 09:26:35;;;;;;;5.33;4.10;;;10.00;99.90;;;;;;5028589;28;20711;-69
2022/03/15 09:29:01;;;;;;;6.53;3.47;;;10.10;99.90;;;;;;5034357;28;20553;-69
2022/03/15 09:31:29;;;;;;;7.47;3.80;;;10.10;99.90;;;;;;5035094;28;20479;-67
2022/03/15 09:33:56;;;;;;;4.23;3.47;;;10.10;99.90;;;;;;5036108;28;20536;-69
2022/03/15 09:36:23;;;;;;;12.93;6.17;;;10.10;99.90;;;;;;5027220;28;20847;-68
2022/03/15 09:38:50;;;;;;;6.23;3.80;;;10.00;99.90;;;;;;5031772;28;20971;-68
2022/03/15 09:41:18;;;;;;;8.60;4.57;;;10.10;99.90;;;;;;5026880;28;20960;-69
2022/03/15 09:43:47;;;;;;;3.93;3.00;;;10.20;99.90;;;;;;5032773;28;20573;-68
2022/03/15 09:46:15;;;;;;;5.33;3.07;;;10.30;99.90;;;;;;5035858;28;20922;-69
2022/03/15 09:48:45;;;;;;;6.60;4.47;;;10.20;99.90;;;;;;5030835;28;20487;-69
2022/03/15 09:51:14;;;;;;;3.53;2.80;;;10.30;99.90;;;;;;5029095;28;20529;-68
2022/03/15 09:53:41;;;;;;;6.80;4.80;;;10.40;99.90;;;;;;5031257;28;20479;-69
2022/03/15 09:56:08;;;;;;;4.77;3.23;;;10.50;99.90;;;;;;5031222;28;20460;-68
2022/03/15 09:58:35;;;;;;;6.97;5.10;;;10.50;99.90;;;;;;5033367;28;20566;-68
2022/03/15 10:01:02;;;;;;;4.97;3.90;;;10.50;99.90;;;;;;5030458;28;20900;-68
2022/03/15 10:03:29;;;;;;;6.80;4.53;;;10.40;99.90;;;;;;5033966;28;20935;-68
2022/03/15 10:05:57;;;;;;;6.00;3.43;;;10.50;99.90;;;;;;5029673;28;20430;-68
2022/03/15 10:08:24;;;;;;;9.80;4.13;;;10.60;99.90;;;;;;5031353;28;20498;-68
2022/03/15 10:10:53;;;;;;;9.47;3.80;;;10.70;99.90;;;;;;5033599;28;20466;-68
2022/03/15 10:13:19;;;;;;;13.57;4.93;;;10.80;99.90;;;;;;5032459;28;20878;-69
2022/03/15 10:15:53;;;;;;;7.40;3.27;;;10.90;99.90;;;;;;5033906;28;20454;-69
2022/03/15 10:18:20;;;;;;;7.80;4.03;;;11.00;99.90;;;;;;5026276;28;20483;-69
2022/03/15 10:20:49;;;;;;;4.47;4.03;;;11.10;99.90;;;;;;5031925;28;20632;-70
2022/03/15 10:23:18;;;;;;;7.40;3.90;;;11.40;99.90;;;;;;5028971;28;20461;-69
2022/03/15 10:25:48;;;;;;;9.53;4.00;;;11.50;99.90;;;;;;5029000;28;20430;-69
2022/03/15 10:28:16;;;;;;;3.97;2.80;;;11.50;99.90;;;;;;5030597;28;20471;-69
2022/03/15 10:30:44;;;;;;;5.30;4.10;;;11.60;99.90;;;;;;5031391;28;20562;-69
2022/03/15 10:33:11;;;;;;;17.57;4.63;;;11.50;99.90;;;;;;5033121;28;20487;-68
2022/03/15 10:35:40;;;;;;;10.57;3.80;;;11.60;99.90;;;;;;5030343;28;21436;-69
2022/03/15 10:38:08;;;;;;;8.20;3.17;;;11.70;99.90;;;;;;5035002;28;20498;-69
2022/03/15 10:40:40;;;;;;;4.73;2.90;;;11.80;99.90;;;;;;5032965;28;20580;-68
2022/03/15 10:43:09;;;;;;;4.80;2.90;;;11.80;99.90;;;;;;5026546;28;20469;-68
2022/03/15 10:45:37;;;;;;;6.00;3.00;;;11.70;99.90;;;;;;5034956;28;20463;-68
2022/03/15 10:48:14;;;;;;;7.13;3.00;;;11.80;99.90;;;;;;5028614;28;20479;-68
2022/03/15 10:50:51;;;;;;;3.00;2.67;;;12.00;99.90;;;;;;5028616;28;20974;-67
2022/03/15 10:53:18;;;;;;;2.57;1.93;;;12.50;99.90;;;;;;5028734;28;20434;-70
2022/03/15 10:55:46;;;;;;;1.73;1.53;;;12.50;99.90;;;;;;5029084;28;20510;-70
2022/03/15 10:58:15;;;;;;;4.70;2.47;;;12.10;99.90;;;;;;5025461;28;20620;-70
2022/03/15 11:00:43;;;;;;;10.87;2.67;;;12.00;99.90;;;;;;5027905;28;20441;-71
2022/03/15 11:03:15;;;;;;;3.20;1.90;;;12.20;99.90;;;;;;5035870;28;21130;-70
2022/03/15 11:05:43;;;;;;;4.90;2.30;;;12.30;99.90;;;;;;5030767;28;20460;-70
2022/03/15 11:08:11;;;;;;;6.23;2.40;;;12.20;99.90;;;;;;5030944;28;20549;-70
2022/03/15 11:10:39;;;;;;;6.37;3.30;;;12.40;99.90;;;;;;5032270;28;20452;-69
2022/03/15 11:13:11;;;;;;;3.77;2.87;;;12.70;99.90;;;;;;5029572;28;20675;-69
2022/03/15 11:15:41;;;;;;;3.77;2.30;;;12.80;99.90;;;;;;5033797;28;22040;-69
2022/03/15 11:18:11;;;;;;;3.73;2.47;;;12.60;99.90;;;;;;5031923;28;20632;-69
2022/03/15 11:20:40;;;;;;;8.27;2.33;;;12.50;99.90;;;;;;5033660;28;20914;-69
2022/03/15 11:23:08;;;;;;;2.57;1.90;;;12.60;99.90;;;;;;5038956;28;20460;-69
2022/03/15 11:25:38;;;;;;;4.10;2.40;;;12.60;99.90;;;;;;5030937;28;20448;-69
2022/03/15 11:28:08;;;;;;;3.03;2.33;;;13.00;99.90;;;;;;5035386;28;21274;-69
2022/03/15 11:30:35;;;;;;;8.03;3.13;;;13.20;99.90;;;;;;5036490;28;20486;-68
2022/03/15 11:33:04;;;;;;;3.97;2.10;;;13.40;99.90;;;;;;5030835;28;20464;-68
2022/03/15 11:35:31;;;;;;;12.20;3.47;;;13.40;99.90;;;;;;5034600;28;21114;-69
2022/03/15 11:38:00;;;;;;;5.87;2.60;;;13.60;99.90;;;;;;5034528;28;21142;-70
2022/03/15 11:40:27;;;;;;;1.93;1.73;;;13.60;99.90;;;;;;5042036;28;20458;-68
2022/03/15 11:43:03;;;;;;;7.37;3.07;;;13.30;99.90;;;;;;5030107;28;20434;-69
2022/03/15 11:45:34;;;;;;;2.57;2.20;;;13.00;99.90;;;;;;5037604;28;20456;-68
2022/03/15 11:48:11;;;;;;;5.37;3.13;;;12.70;99.90;;;;;;5039603;28;20562;-68
2022/03/15 11:50:44;;;;;;;3.33;3.03;;;12.70;99.90;;;;;;5033047;28;21050;-68
2022/03/15 11:53:18;;;;;;;4.77;2.87;;;12.80;99.90;;;;;;5030036;28;20837;-69
2022/03/15 11:55:49;;;;;;;2.93;2.70;;;13.00;99.90;;;;;;5038926;28;20487;-69
2022/03/15 11:58:24;;;;;;;8.13;2.73;;;13.40;99.90;;;;;;5031975;28;20490;-68
2022/03/15 12:00:53;;;;;;;3.50;2.90;;;13.70;99.90;;;;;;5029162;28;20441;-69
2022/03/15 12:03:23;;;;;;;3.40;2.23;;;14.00;99.90;;;;;;5032478;28;20479;-69
2022/03/15 12:05:52;;;;;;;10.90;3.20;;;14.10;99.90;;;;;;5028489;28;20448;-68
2022/03/15 12:08:21;;;;;;;14.23;2.80;;;14.00;99.90;;;;;;5029009;28;20523;-68
2022/03/15 12:10:54;;;;;;;3.43;2.97;;;13.90;99.90;;;;;;5035205;28;20463;-68
2022/03/15 12:13:21;;;;;;;3.47;2.27;;;14.10;99.90;;;;;;5034039;28;20518;-68
2022/03/15 12:15:50;;;;;;;5.60;2.80;;;14.10;99.90;;;;;;5032567;28;20831;-69
2022/03/15 12:18:27;;;;;;;4.47;2.70;;;13.90;99.90;;;;;;5024674;28;21258;-69
2022/03/15 12:21:02;;;;;;;5.00;2.30;;;14.10;99.90;;;;;;5035879;28;20530;-68
2022/03/15 12:23:30;;;;;;;29.73;4.67;;;14.30;99.90;;;;;;5033170;28;20482;-68
2022/03/15 12:25:57;;;;;;;2.97;2.47;;;14.10;99.90;;;;;;5031674;28;20964;-67
2022/03/15 12:28:29;;;;;;;2.67;2.33;;;13.70;99.90;;;;;;5031594;28;20533;-68
2022/03/15 12:31:04;;;;;;;20.87;4.27;;;13.80;99.90;;;;;;5032857;28;20522;-69
2022/03/15 12:33:32;;;;;;;4.13;2.50;;;14.10;99.90;;;;;;5034225;28;20436;-69
2022/03/15 12:36:02;;;;;;;5.10;2.20;;;14.00;99.90;;;;;;5027234;28;20611;-68
2022/03/15 12:38:34;;;;;;;3.77;2.73;;;14.00;99.90;;;;;;5036636;28;20483;-68
2022/03/15 12:41:02;;;;;;;5.13;2.83;;;14.20;99.90;;;;;;5036885;28;20438;-69
2022/03/15 12:43:29;;;;;;;5.10;3.20;;;14.30;99.90;;;;;;5033196;28;20456;-67
2022/03/15 12:46:00;;;;;;;4.23;2.00;;;14.30;99.90;;;;;;5028360;28;20525;-69
2022/03/15 12:48:34;;;;;;;9.90;4.57;;;14.40;99.90;;;;;;5035096;28;20821;-69
2022/03/15 12:51:02;;;;;;;4.70;3.20;;;14.50;99.90;;;;;;5029001;28;20460;-69
2022/03/15 12:53:41;;;;;;;3.73;2.27;;;14.40;99.90;;;;;;5032600;28;20487;-68
2022/03/15 12:56:10;;;;;;;5.50;2.40;;;14.50;99.90;;;;;;5032888;28;20479;-70